Time;durP1;ratioP1;P1;durP2;ratioP2;P2;SDS_P1;SDS_P2;PMS_P1;PMS_P2;Temp;Humidity;BMP_temperature;BMP_pressure;BME280_temperature;BME280_humidity;BME280_pressure;Samples;Min_cycle;Max_cycle;Signal;HPM_P1;HPM_P2
2021/10/27 00:01:08;;;;;;;1999.90;999.90;;;;;;;10.71;100.00;100097.69;5091743;28;20032;-33
2021/10/27 00:03:33;;;;;;;1999.90;999.90;;;;;;;10.69;100.00;100097.94;5091599;28;20024;-33
2021/10/27 00:05:59;;;;;;;1999.90;999.90;;;;;;;10.71;100.00;100095.84;5091692;28;20435;-33
2021/10/27 00:08:25;;;;;;;1999.90;999.90;;;;;;;10.68;100.00;100097.09;5091884;28;20403;-32
2021/10/27 00:10:51;;;;;;;1999.90;999.90;;;;;;;10.67;100.00;100092.84;5091931;28;20104;-33
2021/10/27 00:13:18;;;;;;;1999.90;999.90;;;;;;;10.67;100.00;100082.19;5091499;28;20034;-33
2021/10/27 00:15:44;;;;;;;1999.90;999.90;;;;;;;10.65;100.00;100078.91;5092583;28;20055;-33
2021/10/27 00:18:10;;;;;;;1999.90;999.90;;;;;;;10.64;100.00;100084.50;5091574;28;20476;-33
2021/10/27 00:20:36;;;;;;;1999.90;999.90;;;;;;;10.58;100.00;100082.75;5092107;28;20427;-33
2021/10/27 00:23:02;;;;;;;1999.90;999.90;;;;;;;10.52;100.00;100076.50;5095663;28;20561;-33
2021/10/27 00:25:28;;;;;;;1999.90;999.90;;;;;;;10.56;100.00;100075.00;5095581;28;20468;-33
2021/10/27 00:27:53;;;;;;;1999.90;999.90;;;;;;;10.57;100.00;100078.47;5095217;28;20452;-33
2021/10/27 00:30:19;;;;;;;1999.90;999.90;;;;;;;10.50;100.00;100071.41;5095179;28;20028;-33
2021/10/27 00:32:45;;;;;;;1999.90;999.90;;;;;;;10.50;100.00;100071.41;5095409;28;20105;-33
2021/10/27 00:35:11;;;;;;;1999.90;999.90;;;;;;;10.55;100.00;100080.56;5094919;28;20408;-33
2021/10/27 00:37:36;;;;;;;1999.90;999.90;;;;;;;10.52;100.00;100070.38;5095068;28;20056;-33
2021/10/27 00:40:04;;;;;;;1999.90;999.90;;;;;;;10.56;100.00;100075.00;5094951;28;20035;-33
2021/10/27 00:42:30;;;;;;;1999.90;999.90;;;;;;;10.58;100.00;100069.44;5096057;28;20368;-33
2021/10/27 00:44:55;;;;;;;1999.90;999.90;;;;;;;10.56;100.00;100074.22;5093621;28;20020;-34
2021/10/27 00:47:22;;;;;;;1999.90;999.90;;;;;;;10.51;100.00;100064.22;5094848;28;20032;-33
2021/10/27 00:49:47;;;;;;;1999.90;999.90;;;;;;;10.53;100.00;100070.16;5095171;28;20116;-33
2021/10/27 00:52:15;;;;;;;1999.90;999.90;;;;;;;10.50;100.00;100063.44;5094631;28;20115;-33
2021/10/27 00:54:44;;;;;;;1999.90;999.90;;;;;;;10.52;100.00;100067.72;5094495;28;20515;-34
2021/10/27 00:57:12;;;;;;;1999.90;999.90;;;;;;;10.43;100.00;100064.59;5094920;28;20469;-34
2021/10/27 00:59:40;;;;;;;1999.90;999.90;;;;;;;10.46;100.00;100058.81;5094883;28;20058;-34
2021/10/27 01:02:07;;;;;;;1999.90;999.90;;;;;;;10.38;100.00;100059.97;5094580;28;20024;-34
2021/10/27 01:04:33;;;;;;;1999.90;999.90;;;;;;;10.41;100.00;100056.00;5094458;28;20024;-34
2021/10/27 01:06:59;;;;;;;;;;;;;;;10.42;100.00;100053.13;5094952;28;20036;-34
2021/10/27 01:09:26;;;;;;;1999.90;999.90;;;;;;;10.39;100.00;100063.44;5094489;28;20015;-34
2021/10/27 01:11:52;;;;;;;1999.90;999.90;;;;;;;10.38;100.00;100059.16;5094411;28;20040;-34
2021/10/27 01:14:18;;;;;;;1999.90;999.90;;;;;;;10.44;100.00;100061.69;5094612;28;20031;-34
2021/10/27 01:16:46;;;;;;;1999.90;999.90;;;;;;;10.45;100.00;100068.66;5094523;28;20032;-33
2021/10/27 01:19:12;;;;;;;1999.90;999.90;;;;;;;10.46;100.00;100064.94;5094570;28;20028;-34
2021/10/27 01:21:40;;;;;;;1999.90;999.90;;;;;;;10.49;100.00;100053.81;5094502;28;20031;-34
2021/10/27 01:24:07;;;;;;;1999.90;999.90;;;;;;;10.48;100.00;100064.69;5093950;28;20032;-34
2021/10/27 01:26:34;;;;;;;1999.90;999.90;;;;;;;10.35;100.00;100065.78;5094402;28;20381;-34
2021/10/27 01:29:00;;;;;;;1999.90;999.90;;;;;;;10.40;100.00;100065.88;5094054;28;20032;-34
2021/10/27 01:31:27;;;;;;;1999.90;999.90;;;;;;;10.43;100.00;100065.41;5094299;28;20027;-34
2021/10/27 01:33:53;;;;;;;;;;;;;;;10.40;100.00;100057.88;5093775;28;20141;-34
2021/10/27 01:36:20;;;;;;;1999.90;999.90;;;;;;;10.39;100.00;100056.25;5093750;28;20319;-34
2021/10/27 01:38:48;;;;;;;1999.90;999.90;;;;;;;10.40;100.00;100059.75;5094157;28;20032;-34
2021/10/27 01:41:14;;;;;;;1999.90;999.90;;;;;;;10.42;100.00;100058.44;5093805;28;20036;-34
2021/10/27 01:43:50;;;;;;;;;;;;;;;10.44;100.00;100059.03;5094097;28;20035;-34
2021/10/27 01:46:16;;;;;;;1999.90;999.90;;;;;;;10.38;100.00;100061.81;5093698;28;19912;-34
2021/10/27 01:48:42;;;;;;;1999.90;999.90;;;;;;;10.39;100.00;100050.13;5093990;28;20483;-34
2021/10/27 01:51:08;;;;;;;1999.90;999.90;;;;;;;10.36;100.00;100064.72;5093611;28;20074;-34
2021/10/27 01:53:33;;;;;;;1999.90;999.90;;;;;;;10.27;100.00;100056.22;5094009;28;20051;-34
2021/10/27 01:55:59;;;;;;;1999.90;999.90;;;;;;;10.25;100.00;100061.00;5093473;28;20123;-34
2021/10/27 01:58:25;;;;;;;1999.90;999.90;;;;;;;10.24;100.00;100050.56;5093488;28;20021;-34
2021/10/27 02:00:50;;;;;;;1999.90;999.90;;;;;;;10.22;100.00;100053.47;5093430;28;20110;-34
2021/10/27 02:03:16;;;;;;;1999.90;999.90;;;;;;;10.27;100.00;100066.09;5093394;28;20020;-34
2021/10/27 02:05:42;;;;;;;1999.90;999.90;;;;;;;10.29;100.00;100064.00;5093384;28;20027;-34
2021/10/27 02:08:07;;;;;;;1999.90;999.90;;;;;;;10.19;100.00;100064.59;5093284;28;20399;-34
2021/10/27 02:10:33;;;;;;;1999.90;999.90;;;;;;;10.23;100.00;100059.59;5093248;28;20028;-34
2021/10/27 02:12:58;;;;;;;1999.90;999.90;;;;;;;10.21;100.00;100059.84;5093221;28;20031;-33
2021/10/27 02:15:24;;;;;;;1999.90;999.90;;;;;;;10.18;100.00;100059.50;5092977;28;20036;-34
2021/10/27 02:17:50;;;;;;;1999.90;999.90;;;;;;;10.19;100.00;100059.25;5093099;28;20032;-33
2021/10/27 02:20:16;;;;;;;1999.90;999.90;;;;;;;10.14;100.00;100067.97;5093383;28;20043;-34
2021/10/27 02:22:42;;;;;;;1999.90;999.90;;;;;;;10.23;100.00;100065.72;5093027;28;20345;-34
2021/10/27 02:25:08;;;;;;;1999.90;999.90;;;;;;;10.20;100.00;100065.38;5092925;28;20031;-34
2021/10/27 02:27:34;;;;;;;1999.90;999.90;;;;;;;10.16;100.00;100067.72;5092885;28;20067;-34
2021/10/27 02:29:59;;;;;;;1999.90;999.90;;;;;;;10.17;100.00;100061.34;5092869;28;20066;-34
2021/10/27 02:32:25;;;;;;;1999.90;999.90;;;;;;;10.23;100.00;100073.72;5092859;28;20040;-34
2021/10/27 02:34:51;;;;;;;1999.90;999.90;;;;;;;10.21;100.00;100065.16;5093034;28;20036;-34
2021/10/27 02:37:17;;;;;;;1999.90;999.90;;;;;;;10.23;100.00;100063.06;5092700;28;20420;-34
2021/10/27 02:39:43;;;;;;;1999.90;999.90;;;;;;;10.23;100.00;100065.72;5093032;28;20407;-34
2021/10/27 02:42:09;;;;;;;1999.90;999.90;;;;;;;10.31;100.00;100065.38;5092980;28;20502;-34
2021/10/27 02:44:36;;;;;;;1999.90;999.90;;;;;;;10.30;100.00;100066.41;5092361;28;20036;-34
2021/10/27 02:47:03;;;;;;;1999.90;999.90;;;;;;;10.25;100.00;100071.66;5092836;28;20032;-34
2021/10/27 02:49:28;;;;;;;1999.90;999.90;;;;;;;10.28;100.00;100073.03;5092573;28;20060;-33
2021/10/27 02:51:54;;;;;;;1999.90;999.90;;;;;;;10.23;100.00;100073.72;5092837;28;20020;-33
2021/10/27 02:54:20;;;;;;;1999.90;999.90;;;;;;;10.12;100.00;100069.22;5092332;28;20488;-34
2021/10/27 02:56:46;;;;;;;1999.90;999.90;;;;;;;10.03;100.00;100068.75;5092367;28;20031;-34
2021/10/27 02:59:12;;;;;;;1999.90;999.90;;;;;;;9.95;100.00;100071.75;5092446;28;20125;-34
2021/10/27 03:01:37;;;;;;;1999.90;999.90;;;;;;;9.97;100.00;100067.03;5092358;28;20056;-33
2021/10/27 03:04:03;;;;;;;1999.90;999.90;;;;;;;9.89;100.00;100070.00;5092597;28;20035;-34
2021/10/27 03:06:29;;;;;;;1999.90;999.90;;;;;;;9.91;100.00;100071.41;5092582;28;20388;-34
2021/10/27 03:08:54;;;;;;;1999.90;999.90;;;;;;;9.83;100.00;100074.41;5092614;28;20024;-33
2021/10/27 03:11:20;;;;;;;1999.90;999.90;;;;;;;9.80;100.00;100075.66;5092250;28;20104;-34
2021/10/27 03:13:46;;;;;;;1999.90;999.90;;;;;;;9.77;100.00;100073.47;5092174;28;20028;-33
2021/10/27 03:16:12;;;;;;;1999.90;999.90;;;;;;;9.80;100.00;100077.53;5092309;28;20047;-33
2021/10/27 03:18:37;;;;;;;1999.90;999.90;;;;;;;9.68;100.00;100082.03;5092183;28;20487;-33
2021/10/27 03:21:03;;;;;;;1999.90;999.90;;;;;;;9.74;100.00;100076.59;5092058;28;20032;-33
2021/10/27 03:23:29;;;;;;;1999.90;999.90;;;;;;;9.68;100.00;100074.84;5092095;28;20027;-33
2021/10/27 03:25:54;;;;;;;1999.90;999.90;;;;;;;9.67;100.00;100080.41;5091946;28;20040;-33
2021/10/27 03:28:20;;;;;;;1999.90;999.90;;;;;;;9.62;100.00;100076.56;5092007;28;20024;-33
2021/10/27 03:30:46;;;;;;;1999.90;999.90;;;;;;;9.55;100.00;100086.50;5091981;28;20031;-33
2021/10/27 03:33:11;;;;;;;1999.90;999.90;;;;;;;9.60;100.00;100086.63;5092244;28;20028;-33
2021/10/27 03:35:37;;;;;;;1999.90;999.90;;;;;;;9.54;100.00;100084.84;5091805;28;20081;-33
2021/10/27 03:38:03;;;;;;;1999.90;999.90;;;;;;;9.56;100.00;100087.31;5091916;28;20161;-33
2021/10/27 03:40:29;;;;;;;1999.90;999.90;;;;;;;9.51;100.00;100092.50;5091841;28;20040;-33
2021/10/27 03:42:54;;;;;;;1999.90;999.90;;;;;;;9.54;100.00;100090.19;5092200;28;20024;-33
2021/10/27 03:45:20;;;;;;;1999.90;999.90;;;;;;;9.55;100.00;100093.66;5091741;28;20113;-33
2021/10/27 03:47:46;;;;;;;1999.90;999.90;;;;;;;9.57;100.00;100089.75;5092144;28;20062;-33
2021/10/27 03:50:14;;;;;;;1999.90;999.90;;;;;;;9.58;100.00;100090.56;5091815;28;20587;-33
2021/10/27 03:52:44;;;;;;;1999.90;999.90;;;;;;;9.55;100.00;100088.34;5092090;28;20095;-33
2021/10/27 03:55:11;;;;;;;1999.90;999.90;;;;;;;9.55;100.00;100091.81;5091519;28;20556;-33
2021/10/27 03:57:37;;;;;;;1999.90;999.90;;;;;;;9.58;100.00;100094.00;5095452;28;20030;-33
2021/10/27 04:00:05;;;;;;;1999.90;999.90;;;;;;;9.56;100.00;100093.44;5095803;28;20028;-33
2021/10/27 04:02:31;;;;;;;1999.90;999.90;;;;;;;9.59;100.00;100084.19;5096026;28;20024;-33
2021/10/27 04:04:57;;;;;;;1999.90;999.90;;;;;;;9.69;100.00;100086.28;5095604;28;20026;-33
2021/10/27 04:07:23;;;;;;;1999.90;999.90;;;;;;;9.68;100.00;100087.34;5095976;28;20040;-33
2021/10/27 04:09:48;;;;;;;1999.90;999.90;;;;;;;9.53;100.00;100091.25;5095626;28;20407;-33
2021/10/27 04:12:14;;;;;;;1999.90;999.90;;;;;;;9.48;100.00;100107.06;5095835;28;20032;-33
2021/10/27 04:14:41;;;;;;;1999.90;999.90;;;;;;;9.48;100.00;100101.72;5095424;28;20472;-33
2021/10/27 04:17:06;;;;;;;1999.90;999.90;;;;;;;9.39;100.00;100093.25;5095666;28;20028;-33
2021/10/27 04:19:34;;;;;;;1999.90;999.90;;;;;;;9.39;100.00;100101.25;5096223;28;20090;-33
2021/10/27 04:22:00;;;;;;;1999.90;999.90;;;;;;;9.40;100.00;100096.75;5095366;28;20058;-33
2021/10/27 04:24:26;;;;;;;1999.90;999.90;;;;;;;9.43;100.00;100096.28;5095621;28;20118;-33
2021/10/27 04:26:53;;;;;;;1999.90;999.90;;;;;;;9.42;100.00;100095.47;5095508;28;20519;-33
2021/10/27 04:29:19;;;;;;;1999.90;999.90;;;;;;;9.40;100.00;100099.41;5095533;28;20093;-33
2021/10/27 04:31:45;;;;;;;;;;;;;;;9.39;100.00;100093.25;5095653;28;20024;-33
2021/10/27 04:34:10;;;;;;;1999.90;999.90;;;;;;;9.34;100.00;100101.13;5095459;28;20450;-33
2021/10/27 04:36:36;;;;;;;1999.90;999.90;;;;;;;9.35;100.00;100104.56;5095449;28;20569;-33
2021/10/27 04:39:03;;;;;;;1999.90;999.90;;;;;;;9.35;100.00;100100.09;5095392;28;20093;-33
2021/10/27 04:41:28;;;;;;;1999.90;999.90;;;;;;;9.32;100.00;100111.16;5095335;28;20023;-33
2021/10/27 04:43:54;;;;;;;1999.90;999.90;;;;;;;9.32;100.00;100107.69;5094951;28;20129;-33
2021/10/27 04:46:20;;;;;;;1999.90;999.90;;;;;;;9.35;100.00;100110.72;5094780;28;20036;-33
2021/10/27 04:48:46;;;;;;;1999.90;999.90;;;;;;;9.37;100.00;100105.19;5094739;28;20028;-33
2021/10/27 04:51:11;;;;;;;1999.90;999.90;;;;;;;9.38;100.00;100102.28;5094852;28;20032;-33
2021/10/27 04:53:37;;;;;;;1999.90;999.90;;;;;;;9.43;100.00;100106.94;5094580;28;20094;-33
2021/10/27 04:56:03;;;;;;;1999.90;999.90;;;;;;;9.49;100.00;100102.56;5094586;28;20157;-33
2021/10/27 04:58:30;;;;;;;1999.90;999.90;;;;;;;9.58;100.00;100107.31;5094882;28;20029;-33
2021/10/27 05:00:56;;;;;;;1999.90;999.90;;;;;;;9.72;100.00;100102.63;5094876;28;20035;-33
2021/10/27 05:03:22;;;;;;;1999.90;999.90;;;;;;;9.89;100.00;100101.97;5094902;28;20046;-33
2021/10/27 05:05:54;;;;;;;1999.90;999.90;;;;;;;9.92;100.00;100112.94;5094800;28;20403;-33
2021/10/27 05:08:23;;;;;;;1999.90;999.90;;;;;;;9.71;100.00;100114.28;5093145;28;20028;-33
2021/10/27 05:10:52;;;;;;;1999.90;999.90;;;;;;;9.71;100.00;100111.63;5094737;28;20031;-33
2021/10/27 05:13:19;;;;;;;1999.90;999.90;;;;;;;9.80;100.00;100120.09;5094417;28;20028;-33
2021/10/27 05:15:46;;;;;;;1999.90;999.90;;;;;;;9.84;100.00;100126.59;5094156;28;20127;-33
2021/10/27 05:18:13;;;;;;;1999.90;999.90;;;;;;;9.91;100.00;100127.31;5094892;28;20517;-33
2021/10/27 05:20:39;;;;;;;1999.90;999.90;;;;;;;9.97;100.00;100123.72;5094226;28;20075;-34
2021/10/27 05:23:04;;;;;;;1999.90;999.90;;;;;;;10.07;100.00;100135.66;5094212;28;20028;-34
2021/10/27 05:25:31;;;;;;;1999.90;999.90;;;;;;;10.13;100.00;100138.22;5094439;28;20028;-34
2021/10/27 05:27:56;;;;;;;1999.90;999.90;;;;;;;10.13;100.00;100134.72;5094364;28;20035;-34
2021/10/27 05:30:22;;;;;;;1999.90;999.90;;;;;;;10.14;100.00;100139.03;5093966;28;20439;-34
2021/10/27 05:32:48;;;;;;;1999.90;999.90;;;;;;;10.19;100.00;100138.34;5094389;28;20056;-33
2021/10/27 05:35:14;;;;;;;1999.90;999.90;;;;;;;10.25;100.00;100145.44;5093847;28;20495;-34
2021/10/27 05:37:39;;;;;;;1999.90;999.90;;;;;;;10.28;100.00;100145.75;5093925;28;20085;-33
2021/10/27 05:40:06;;;;;;;1999.90;999.90;;;;;;;10.33;100.00;100151.22;5094140;28;20034;-33
2021/10/27 05:42:32;;;;;;;1999.90;999.90;;;;;;;10.42;100.00;100151.69;5093849;28;20115;-33
2021/10/27 05:45:00;;;;;;;1999.90;999.90;;;;;;;10.56;100.00;100160.28;5093722;28;20552;-33
2021/10/27 05:47:27;;;;;;;1999.90;999.90;;;;;;;10.50;100.00;100161.22;5093651;28;20557;-33
2021/10/27 05:49:55;;;;;;;1999.90;999.90;;;;;;;10.49;100.00;100160.38;5093672;28;20042;-33
2021/10/27 05:55:19;;;;;;;1999.90;999.90;;;;;;;10.71;100.00;100170.47;5093500;28;20048;-33
2021/10/27 05:57:45;;;;;;;1999.90;999.90;;;;;;;10.76;100.00;100169.75;5093872;28;20464;-33
2021/10/27 06:00:11;;;;;;;1999.90;999.90;;;;;;;10.82;100.00;100171.50;5093500;28;20020;-33
2021/10/27 06:02:38;;;;;;;1999.90;999.90;;;;;;;10.89;100.00;100169.50;5093716;28;20073;-33
2021/10/27 06:05:05;;;;;;;1999.90;999.90;;;;;;;10.79;100.00;100175.47;5093341;28;20031;-33
2021/10/27 06:07:34;;;;;;;1999.90;999.90;;;;;;;10.90;100.00;100171.16;5093315;28;20102;-33
2021/10/27 06:10:00;;;;;;;1999.90;999.90;;;;;;;10.94;100.00;100169.63;5093521;28;20028;-33
2021/10/27 06:12:28;;;;;;;1999.90;999.90;;;;;;;10.95;100.00;100181.09;5093577;28;20034;-33
2021/10/27 06:14:53;;;;;;;1999.90;999.90;;;;;;;11.02;100.00;100185.25;5093241;28;20633;-33
2021/10/27 06:17:19;;;;;;;1999.90;999.90;;;;;;;11.08;100.00;100188.03;5093329;28;20107;-32
2021/10/27 06:19:47;;;;;;;1999.90;999.90;;;;;;;11.04;100.00;100201.06;5092705;28;20411;-33
2021/10/27 06:22:13;;;;;;;1999.90;999.90;;;;;;;11.15;100.00;100194.06;5093318;28;20121;-33
2021/10/27 06:24:40;;;;;;;;;;;;;;;11.11;100.00;100201.72;5093645;28;20035;-33
2021/10/27 06:27:06;;;;;;;1999.90;999.90;;;;;;;11.26;100.00;100200.41;5092956;28;20417;-33
2021/10/27 06:29:37;;;;;;;1999.90;999.90;;;;;;;11.38;100.00;100202.00;5093224;28;20032;-33
2021/10/27 06:32:20;;;;;;;1999.90;999.90;;;;;;;11.50;98.79;100207.31;5092844;28;20081;-33
2021/10/27 06:34:50;;;;;;;1999.90;999.90;;;;;;;11.35;98.54;100197.16;5093224;28;20024;-33
2021/10/27 06:37:50;;;;;;;1999.90;999.90;;;;;;;11.42;98.80;100204.19;5092810;28;20032;-33
2021/10/27 06:48:14;;;;;;;1999.90;999.90;;;;;;;11.84;93.17;100207.41;5092945;28;20059;-33
2021/10/27 06:50:40;;;;;;;1999.90;999.90;;;;;;;11.84;90.82;100209.28;5092576;28;20082;-33
2021/10/27 06:53:06;;;;;;;1999.90;999.90;;;;;;;11.94;91.26;100212.16;5092521;28;20031;-33
2021/10/27 06:55:36;;;;;;;1999.90;999.90;;;;;;;12.04;90.96;100215.00;5092176;28;20044;-33
2021/10/27 06:58:02;;;;;;;1999.90;999.90;;;;;;;12.01;90.07;100214.66;5092723;28;20032;-33
2021/10/27 07:00:52;;;;;;;1999.90;999.90;;;;;;;11.78;91.57;100210.22;5092708;28;20518;-33
2021/10/27 07:03:35;;;;;;;1999.90;999.90;;;;;;;11.96;90.77;100218.06;5092652;28;20408;-33
2021/10/27 07:16:57;;;;;;;1999.90;999.90;;;;;;;12.38;87.98;100208.88;5092172;28;20047;-33
2021/10/27 07:19:23;;;;;;;1999.90;999.90;;;;;;;12.28;85.80;100212.19;5092245;28;20395;-32
2021/10/27 07:21:48;;;;;;;1999.90;999.90;;;;;;;12.04;88.07;100212.34;5092101;28;20040;-33
2021/10/27 07:24:16;;;;;;;1999.90;999.90;;;;;;;11.79;86.53;100220.69;5092118;28;20099;-33
2021/10/27 07:26:42;;;;;;;1999.90;999.90;;;;;;;11.87;85.47;100216.81;5091921;28;20537;-33
2021/10/27 07:29:08;;;;;;;;;;;;;;;12.25;85.31;100212.69;5092483;28;20034;-33
2021/10/27 07:31:34;;;;;;;1999.90;999.90;;;;;;;12.48;85.14;100216.22;5091157;28;19912;-33
2021/10/27 07:34:07;;;;;;;1999.90;999.90;;;;;;;12.64;83.36;100206.59;5092298;28;20057;-33
2021/10/27 07:42:18;;;;;;;1999.90;999.90;;;;;;;13.00;81.26;100218.59;5091991;28;20094;-33
2021/10/27 07:44:45;;;;;;;1999.90;999.90;;;;;;;12.43;81.94;100211.63;5091913;28;20031;-33
2021/10/27 07:47:11;;;;;;;1999.90;999.90;;;;;;;12.49;81.12;100223.22;5091758;28;20024;-33
2021/10/27 07:49:37;;;;;;;1999.90;999.90;;;;;;;12.27;82.17;100210.56;5091829;28;20024;-32
2021/10/27 07:52:04;;;;;;;1999.90;999.90;;;;;;;12.56;83.87;100213.97;5091788;28;20081;-33
2021/10/27 07:54:29;;;;;;;1999.90;999.90;;;;;;;12.76;82.32;100221.47;5090745;28;20121;-33
2021/10/27 07:56:55;;;;;;;1999.90;999.90;;;;;;;12.47;82.27;100209.28;5091571;28;20115;-33
2021/10/27 07:59:21;;;;;;;1999.90;999.90;;;;;;;12.49;84.79;100210.63;5092514;28;20036;-33
2021/10/27 08:01:48;;;;;;;1999.90;999.90;;;;;;;12.56;81.10;100208.63;5090435;28;20028;-33
2021/10/27 08:04:13;;;;;;;;;;;;;;;12.70;80.70;100203.75;5092163;28;20498;-33
2021/10/27 08:06:40;;;;;;;1999.90;999.90;;;;;;;12.49;82.58;100209.84;5090364;28;19916;-33
2021/10/27 08:09:05;;;;;;;1999.90;999.90;;;;;;;12.43;81.82;100215.13;5090514;28;20024;-33
2021/10/27 08:11:32;;;;;;;1999.90;999.90;;;;;;;12.69;82.10;100206.69;5091494;28;20502;-33
2021/10/27 08:13:57;;;;;;;;;;;;;;;12.78;81.71;100213.22;5092395;28;20352;-33
2021/10/27 08:16:23;;;;;;;1999.90;999.90;;;;;;;12.64;81.19;100203.91;5091419;28;19911;-33
2021/10/27 08:18:50;;;;;;;1999.90;999.90;;;;;;;12.17;84.48;100200.53;5091850;28;20463;-33
2021/10/27 08:21:16;;;;;;;1999.90;999.90;;;;;;;12.48;84.68;100201.03;5091531;28;20113;-33
2021/10/27 08:23:43;;;;;;;1999.90;999.90;;;;;;;12.34;84.06;100189.03;5092323;28;20055;-33
2021/10/27 08:26:14;;;;;;;1999.90;999.90;;;;;;;12.05;83.74;100195.25;5091699;28;20109;-33
2021/10/27 08:28:49;;;;;;;1999.90;999.90;;;;;;;12.29;84.22;100210.31;5091468;28;20111;-33
2021/10/27 08:36:08;;;;;;;1999.90;999.90;;;;;;;12.57;85.37;100207.56;5091363;28;20042;-32
2021/10/27 08:38:34;;;;;;;1999.90;999.90;;;;;;;12.77;84.01;100206.25;5091333;28;20055;-33
2021/10/27 08:41:01;;;;;;;1999.90;999.90;;;;;;;13.04;80.17;100208.22;5091718;28;20399;-33
2021/10/27 08:43:29;;;;;;;1999.90;999.90;;;;;;;13.15;80.60;100206.50;5094387;28;20020;-33
2021/10/27 08:45:54;;;;;;;1999.90;999.90;;;;;;;13.10;79.94;100212.59;5095282;28;20455;-33
2021/10/27 08:48:20;;;;;;;1999.90;999.90;;;;;;;13.15;79.17;100209.16;5095192;28;20531;-33
2021/10/27 08:50:48;;;;;;;1999.90;999.90;;;;;;;13.04;78.34;100217.06;5095134;28;20369;-33
2021/10/27 08:53:16;;;;;;;1999.90;999.90;;;;;;;12.86;80.75;100215.47;5094666;28;20016;-33
2021/10/27 08:55:45;;;;;;;1999.90;999.90;;;;;;;12.83;82.50;100218.66;5094704;28;20028;-33
2021/10/27 08:58:15;;;;;;;1999.90;999.90;;;;;;;12.75;83.01;100211.03;5094986;28;20024;-33
2021/10/27 09:00:58;;;;;;;1999.90;999.90;;;;;;;12.64;84.43;100211.94;5095501;28;20020;-33
2021/10/27 09:06:02;;;;;;;1999.90;999.90;;;;;;;12.94;83.59;100207.03;5094622;28;20035;-33
2021/10/27 09:09:06;;;;;;;1999.90;999.90;;;;;;;12.84;84.54;100201.53;5094875;28;20082;-33
2021/10/27 09:37:10;;;;;;;1999.90;999.90;;;;;;;13.35;81.87;100193.38;5093864;28;20043;-33
2021/10/27 09:39:56;;;;;;;1999.90;999.90;;;;;;;13.74;81.14;100197.81;5094280;28;20036;-33
2021/10/27 09:46:06;;;;;;;1999.90;999.90;;;;;;;13.89;77.97;100191.78;5093846;28;20047;-33
2021/10/27 09:55:28;;;;;;;1999.90;999.90;;;;;;;13.85;77.60;100177.31;5093614;28;20027;-33
2021/10/27 10:04:24;;;;;;;1999.90;999.90;;;;;;;13.75;80.48;100175.34;5094075;28;20164;-33
2021/10/27 10:06:52;;;;;;;1999.90;999.90;;;;;;;13.80;80.85;100168.16;5093363;28;20111;-33
2021/10/27 10:09:18;;;;;;;1999.90;999.90;;;;;;;13.66;77.45;100177.66;5093650;28;20063;-33
2021/10/27 10:11:44;;;;;;;1999.90;999.90;;;;;;;13.54;79.60;100169.78;5093236;28;20020;-33
2021/10/27 10:14:13;;;;;;;1999.90;999.90;;;;;;;13.56;80.02;100167.63;5093579;28;20039;-33
2021/10/27 10:16:43;;;;;;;1999.90;999.90;;;;;;;13.39;76.38;100167.75;5093270;28;20035;-33
2021/10/27 10:19:12;;;;;;;1999.90;999.90;;;;;;;13.82;74.84;100163.34;5093481;28;20130;-33
2021/10/27 10:21:41;;;;;;;1999.90;999.90;;;;;;;13.91;76.13;100162.88;5093126;28;20020;-33
2021/10/27 10:24:17;;;;;;;1999.90;999.90;;;;;;;13.96;75.04;100160.25;5091823;28;20055;-33
2021/10/27 10:26:46;;;;;;;1999.90;999.90;;;;;;;13.91;78.08;100154.84;5092926;28;20054;-33
2021/10/27 10:29:35;;;;;;;1999.90;999.90;;;;;;;13.41;78.09;100156.78;5093275;28;20032;-33
2021/10/27 10:32:30;;;;;;;1999.90;999.90;;;;;;;13.43;78.07;100157.31;5092862;28;20106;-33
2021/10/27 10:35:01;;;;;;;1999.90;999.90;;;;;;;13.51;81.24;100158.75;5092368;28;20043;-33
2021/10/27 10:37:39;;;;;;;1999.90;999.90;;;;;;;13.52;78.88;100160.38;5092682;28;20020;-33
2021/10/27 10:40:29;;;;;;;1999.90;999.90;;;;;;;13.61;77.19;100148.13;5092854;28;20028;-33
2021/10/27 10:45:43;;;;;;;1999.90;999.90;;;;;;;13.34;81.00;100143.56;5092756;28;20032;-33
2021/10/27 11:26:11;;;;;;;1999.90;999.90;;;;;;;13.25;79.60;100121.78;5091749;28;20047;-33
2021/10/27 11:40:15;;;;;;;1999.90;999.90;;;;;;;13.08;81.13;100119.19;5110624;28;19911;-33
2021/10/27 11:42:51;;;;;;;1999.90;999.90;;;;;;;13.25;81.25;100104.91;5110244;28;20074;-33
2021/10/27 11:45:38;;;;;;;1999.90;999.90;;;;;;;13.11;79.22;100112.50;5110424;28;20046;-33
2021/10/27 11:50:43;;;;;;;1999.90;999.90;;;;;;;12.43;85.33;100112.72;5110189;28;20150;-33
2021/10/27 11:53:29;;;;;;;1999.90;999.90;;;;;;;12.78;85.05;100108.91;5109875;28;20097;-35
2021/10/27 11:55:56;;;;;;;1999.90;999.90;;;;;;;12.88;86.03;100105.56;5109896;28;20027;-33
2021/10/27 11:58:35;;;;;;;1999.90;999.90;;;;;;;13.02;84.65;100108.66;5109958;28;20031;-33
2021/10/27 12:01:03;;;;;;;1999.90;999.90;;;;;;;12.91;84.79;100113.09;5109998;28;20422;-33
2021/10/27 12:03:37;;;;;;;1999.90;999.90;;;;;;;12.95;86.75;100108.88;5110100;28;20074;-33
2021/10/27 12:06:11;;;;;;;1999.90;999.90;;;;;;;13.16;85.02;100106.44;5109977;28;20044;-33
2021/10/27 12:14:18;;;;;;;1999.90;999.90;;;;;;;13.07;86.62;100112.22;5110283;28;20060;-33
2021/10/27 12:19:21;;;;;;;1999.90;999.90;;;;;;;12.94;87.90;100105.38;5095521;28;20084;-33
2021/10/27 12:21:57;;;;;;;1999.90;999.90;;;;;;;12.85;87.07;100103.41;5095421;28;20073;-33
2021/10/27 12:24:26;;;;;;;1999.90;999.90;;;;;;;12.98;87.64;100105.69;5095455;28;20028;-33
2021/10/27 12:27:19;;;;;;;1999.90;999.90;;;;;;;13.02;86.54;100106.00;5095290;28;20024;-33
2021/10/27 12:29:41;;;;;;;1999.90;999.90;;;;;;;12.95;87.81;100103.53;5095215;28;20541;-33
2021/10/27 12:32:17;;;;;;;1999.90;999.90;;;;;;;12.85;88.83;100111.41;5095230;28;20031;-33
2021/10/27 12:34:53;;;;;;;1999.90;999.90;;;;;;;12.78;90.97;100117.75;5095213;28;20441;-33
2021/10/27 12:37:27;;;;;;;1999.90;999.90;;;;;;;12.67;92.31;100113.34;5095423;28;20028;-33
2021/10/27 12:40:08;;;;;;;1999.90;999.90;;;;;;;12.55;92.95;100115.28;5095122;28;20515;-33
2021/10/27 12:42:34;;;;;;;1999.90;999.90;;;;;;;12.60;93.01;100116.19;5094967;28;20558;-33
2021/10/27 12:44:59;;;;;;;1999.90;999.90;;;;;;;12.58;92.75;100112.94;5095085;28;20066;-33
2021/10/27 12:47:27;;;;;;;1999.90;999.90;;;;;;;12.66;94.46;100116.25;5095685;28;20039;-33
2021/10/27 12:50:18;;;;;;;1999.90;999.90;;;;;;;12.69;97.78;100118.44;5094919;28;20047;-33
2021/10/27 12:52:56;;;;;;;1999.90;999.90;;;;;;;12.60;96.26;100115.38;5094903;28;20032;-33
2021/10/27 12:55:44;;;;;;;1999.90;999.90;;;;;;;12.56;97.75;100116.91;5094564;28;20048;-33
2021/10/27 12:58:18;;;;;;;1999.90;999.90;;;;;;;12.73;97.41;100123.03;5095053;28;20028;-34
2021/10/27 13:30:20;;;;;;;1999.90;999.90;;;;;;;12.80;95.78;100130.88;5093833;28;20035;-33
2021/10/27 13:32:54;;;;;;;1999.90;999.90;;;;;;;12.95;95.58;100124.91;5094070;28;20031;-33
2021/10/27 13:35:21;;;;;;;1999.90;999.90;;;;;;;13.01;94.58;100128.44;5094037;28;20024;-34
2021/10/27 13:37:47;;;;;;;1999.90;999.90;;;;;;;13.10;94.15;100122.41;5094212;28;20396;-33
2021/10/27 13:40:14;;;;;;;1999.90;999.90;;;;;;;13.09;91.59;100126.13;5093714;28;20035;-34
2021/10/27 13:45:17;;;;;;;1999.90;999.90;;;;;;;13.07;91.42;100133.63;5093912;28;20134;-33